createdAt,value
2018-03-11T00:01:57.826Z,99249.94
2018-03-11T00:04:25.297Z,99249.77
2018-03-11T00:06:52.796Z,99243.97
2018-03-11T00:09:20.300Z,99252.17
2018-03-11T00:11:47.777Z,99251.09
2018-03-11T00:14:15.275Z,99251.88
2018-03-11T00:16:42.938Z,99257.97
2018-03-11T00:19:10.434Z,99262.98
2018-03-11T00:21:37.916Z,99265.88
2018-03-11T00:24:05.405Z,99260.75
2018-03-11T00:26:32.910Z,99258.65
2018-03-11T00:29:00.404Z,99256.03
2018-03-11T00:31:27.917Z,99252.83
2018-03-11T00:33:55.430Z,99254.63
2018-03-11T00:36:22.921Z,99246.38
2018-03-11T00:38:50.405Z,99246.95
2018-03-11T00:41:17.900Z,99242.98
2018-03-11T00:43:45.397Z,99239.42
2018-03-11T00:46:12.882Z,99241.27
2018-03-11T00:48:40.376Z,99238.30
2018-03-11T00:51:07.887Z,99234.47
2018-03-11T00:53:35.362Z,99235.88
2018-03-11T00:56:02.860Z,99232.72
2018-03-11T00:58:30.367Z,99232.54
2018-03-11T01:00:57.854Z,99228.61
2018-03-11T01:03:25.353Z,99228.20
2018-03-11T01:05:52.873Z,99224.30
2018-03-11T01:08:20.346Z,99227.56
2018-03-11T01:10:47.821Z,99222.30
2018-03-11T01:13:15.303Z,99218.92
2018-03-11T01:15:42.816Z,99219.37
2018-03-11T01:18:10.337Z,99221.03
2018-03-11T01:20:37.830Z,99220.48
2018-03-11T01:23:05.310Z,99227.83
2018-03-11T01:25:32.815Z,99222.47
2018-03-11T01:28:00.308Z,99221.49
2018-03-11T01:30:27.790Z,99219.62
2018-03-11T01:32:55.324Z,99223.30
2018-03-11T01:35:22.830Z,99220.24
2018-03-11T01:37:50.338Z,99221.89
2018-03-11T01:40:17.848Z,99214.84
2018-03-11T01:42:45.346Z,99209.98
2018-03-11T01:45:12.857Z,99210.52
2018-03-11T01:47:40.372Z,99212.54
2018-03-11T01:50:07.870Z,99219.67
2018-03-11T01:52:47.148Z,99220.64
2018-03-11T01:55:14.709Z,99221.00
2018-03-11T01:57:42.199Z,99214.13
2018-03-11T02:00:09.727Z,99223.85
2018-03-11T02:02:37.214Z,99223.33
2018-03-11T02:05:04.712Z,99226.90
2018-03-11T02:07:32.219Z,99219.93
2018-03-11T02:09:59.716Z,99219.72
2018-03-11T02:12:27.221Z,99218.00
2018-03-11T02:14:54.863Z,99218.94
2018-03-11T02:17:22.369Z,99222.02
2018-03-11T02:19:49.853Z,99224.90
2018-03-11T02:22:17.344Z,99227.92
2018-03-11T02:24:44.839Z,99226.86
2018-03-11T02:27:12.371Z,99222.45
2018-03-11T02:29:39.849Z,99216.16
2018-03-11T02:32:07.393Z,99221.89
2018-03-11T02:34:34.886Z,99214.68
2018-03-11T02:37:02.414Z,99210.69
2018-03-11T02:39:29.910Z,99209.78
2018-03-11T02:41:57.414Z,99209.41
2018-03-11T02:44:24.908Z,99208.20
2018-03-11T02:46:52.405Z,99204.57
2018-03-11T02:49:19.926Z,99199.33
2018-03-11T02:51:47.432Z,99197.10
2018-03-11T02:54:14.918Z,99192.73
2018-03-11T02:56:42.407Z,99194.87
2018-03-11T02:59:09.905Z,99184.45
2018-03-11T03:01:37.486Z,99184.13
2018-03-11T03:04:05.122Z,99184.50
2018-03-11T03:06:32.625Z,99184.05
2018-03-11T03:09:00.105Z,99185.45
2018-03-11T03:11:27.596Z,99181.45
2018-03-11T03:13:55.107Z,99179.11
2018-03-11T03:16:22.596Z,99183.34
2018-03-11T03:18:50.074Z,99180.75
2018-03-11T03:21:17.570Z,99171.48
2018-03-11T03:23:45.042Z,99174.12
2018-03-11T03:26:12.524Z,99168.55
2018-03-11T03:28:40.018Z,99164.77
2018-03-11T03:31:07.505Z,99167.89
2018-03-11T03:33:35.000Z,99163.84
2018-03-11T03:36:02.491Z,99166.94
2018-03-11T03:38:30.050Z,99166.78
2018-03-11T03:40:57.508Z,99161.59
2018-03-11T03:43:25.012Z,99159.05
2018-03-11T03:45:52.532Z,99155.66
2018-03-11T03:48:20.035Z,99157.92
2018-03-11T03:50:47.546Z,99162.33
2018-03-11T03:53:15.060Z,99155.61
2018-03-11T03:55:42.560Z,99153.52
2018-03-11T03:58:10.068Z,99145.48
2018-03-11T04:00:37.572Z,99145.86
2018-03-11T04:03:05.093Z,99141.66
2018-03-11T04:05:32.585Z,99140.21
2018-03-11T04:08:00.081Z,99132.02
2018-03-11T04:10:27.630Z,99129.33
2018-03-11T04:12:55.120Z,99124.05
2018-03-11T04:15:22.619Z,99122.66
2018-03-11T04:17:50.145Z,99128.17
2018-03-11T04:20:17.652Z,99128.00
2018-03-11T04:22:45.126Z,99124.25
2018-03-11T04:25:12.619Z,99123.55
2018-03-11T04:27:40.125Z,99116.75
2018-03-11T04:30:07.624Z,99121.79
2018-03-11T04:32:35.116Z,99113.62
2018-03-11T04:35:02.597Z,99113.13
2018-03-11T04:37:30.087Z,99109.39
2018-03-11T04:39:57.604Z,99098.80
2018-03-11T04:42:25.108Z,99099.30
2018-03-11T04:44:52.598Z,99097.52
2018-03-11T04:47:20.116Z,99102.80
2018-03-11T04:49:47.616Z,99100.48
2018-03-11T04:52:15.094Z,99097.02
2018-03-11T04:54:42.595Z,99101.54
2018-03-11T04:57:10.083Z,99089.55
2018-03-11T04:59:37.576Z,99090.34
2018-03-11T05:02:05.072Z,99090.06
2018-03-11T05:04:32.562Z,99091.30
2018-03-11T05:07:00.052Z,99098.09
2018-03-11T05:09:27.531Z,99096.03
2018-03-11T05:11:55.033Z,99098.23
2018-03-11T05:14:22.518Z,99095.99
2018-03-11T05:16:50.012Z,99100.82
2018-03-11T05:19:17.512Z,99100.08
2018-03-11T05:21:45.007Z,99098.77
2018-03-11T05:24:12.559Z,99097.66
2018-03-11T05:26:39.988Z,99096.22
2018-03-11T05:29:07.454Z,99099.63
2018-03-11T05:31:35.016Z,99096.42
2018-03-11T05:34:02.517Z,99103.67
2018-03-11T05:36:30.021Z,99103.25
2018-03-11T05:38:57.546Z,99094.36
2018-03-11T05:41:25.120Z,99101.98
2018-03-11T05:43:52.617Z,99093.37
2018-03-11T05:46:20.141Z,99099.71
2018-03-11T05:48:48.754Z,99100.62
2018-03-11T05:51:16.218Z,99099.09
2018-03-11T05:53:43.714Z,99101.27
2018-03-11T05:56:11.208Z,99101.77
2018-03-11T05:58:38.861Z,99096.38
2018-03-11T06:01:06.348Z,99098.52
2018-03-11T06:03:34.082Z,99098.64
2018-03-11T06:06:01.566Z,99101.87
2018-03-11T06:08:29.037Z,99102.19
2018-03-11T06:10:56.549Z,99103.50
2018-03-11T06:13:24.052Z,99095.40
2018-03-11T06:15:51.583Z,99093.26
2018-03-11T06:18:19.105Z,99089.28
2018-03-11T06:20:46.617Z,99083.45
2018-03-11T06:23:14.089Z,99084.28
2018-03-11T06:25:41.593Z,99072.44
2018-03-11T06:28:09.091Z,99074.45
2018-03-11T06:30:36.594Z,99070.58
2018-03-11T06:33:04.115Z,99064.66
2018-03-11T06:35:31.607Z,99064.67
2018-03-11T06:37:59.082Z,99055.65
2018-03-11T06:40:26.648Z,99051.59
2018-03-11T06:42:54.166Z,99050.69
2018-03-11T06:45:21.657Z,99043.59
2018-03-11T06:47:49.168Z,99037.23
2018-03-11T06:50:16.660Z,99046.27
2018-03-11T06:52:44.190Z,99038.91
2018-03-11T06:55:11.849Z,99036.61
2018-03-11T06:57:39.349Z,99032.17
2018-03-11T07:00:06.872Z,99034.65
2018-03-11T07:02:34.368Z,99031.73
2018-03-11T07:05:01.869Z,99028.84
2018-03-11T07:07:29.362Z,99032.73
2018-03-11T07:09:56.854Z,99023.88
2018-03-11T07:12:24.361Z,99020.28
2018-03-11T07:14:51.904Z,99008.25
2018-03-11T07:17:19.392Z,99013.03
2018-03-11T07:19:46.895Z,99020.09
2018-03-11T07:22:15.470Z,99014.66
2018-03-11T07:24:42.988Z,99019.03
2018-03-11T07:27:10.506Z,99012.73
2018-03-11T07:29:38.001Z,99020.06
2018-03-11T07:32:05.494Z,99008.23
2018-03-11T07:34:33.009Z,98999.26
2018-03-11T07:37:00.576Z,99008.22
2018-03-11T07:39:28.165Z,99009.63
2018-03-11T07:41:55.724Z,99010.47
2018-03-11T07:44:23.277Z,99025.86
2018-03-11T07:46:50.785Z,99034.32
2018-03-11T07:49:18.333Z,99041.37
2018-03-11T07:51:46.917Z,99049.38
2018-03-11T07:54:14.453Z,99056.02
2018-03-11T07:56:42.070Z,99051.02
2018-03-11T07:59:09.577Z,99045.86
2018-03-11T08:01:37.147Z,99053.97
2018-03-11T08:04:04.686Z,99051.75
2018-03-11T08:06:32.194Z,99051.00
2018-03-11T08:08:59.711Z,99047.27
2018-03-11T08:11:27.198Z,99035.27
2018-03-11T08:13:54.688Z,99034.83
2018-03-11T08:16:22.219Z,99029.92
2018-03-11T08:18:49.746Z,99029.35
2018-03-11T08:21:17.272Z,99012.24
2018-03-11T08:23:44.769Z,99008.67
2018-03-11T08:26:12.259Z,99012.27
2018-03-11T08:28:39.746Z,99008.23
2018-03-11T08:31:07.260Z,99016.67
2018-03-11T08:33:34.735Z,99011.35
2018-03-11T08:36:02.272Z,99001.39
2018-03-11T08:38:29.757Z,98995.77
2018-03-11T08:40:57.258Z,98969.70
2018-03-11T08:43:24.742Z,98967.73
2018-03-11T08:45:52.241Z,98958.94
2018-03-11T08:48:19.756Z,98961.45
2018-03-11T08:50:47.263Z,98959.35
2018-03-11T08:53:14.816Z,98955.30
2018-03-11T08:55:42.315Z,98953.60
2018-03-11T08:58:09.811Z,98939.30
2018-03-11T09:00:37.333Z,98937.01
2018-03-11T09:03:04.833Z,98938.64
2018-03-11T09:05:32.320Z,98936.31
2018-03-11T09:07:59.820Z,98947.83
2018-03-11T09:10:27.327Z,98945.64
2018-03-11T09:12:54.840Z,98957.30
2018-03-11T09:15:22.333Z,98947.39
2018-03-11T09:17:49.860Z,98954.16
2018-03-11T09:20:17.353Z,98958.36
2018-03-11T09:22:44.857Z,98958.23
2018-03-11T09:25:12.372Z,98974.98
2018-03-11T09:27:39.845Z,98978.45
2018-03-11T09:30:07.345Z,98987.80
2018-03-11T09:32:34.844Z,98992.61
2018-03-11T09:35:02.360Z,98969.75
2018-03-11T09:37:29.974Z,98970.17
2018-03-11T09:39:57.552Z,98964.95
2018-03-11T09:42:25.287Z,98959.85
2018-03-11T09:44:52.964Z,98960.93
2018-03-11T09:47:20.499Z,98955.25
2018-03-11T09:49:47.991Z,98958.56
2018-03-11T09:52:15.465Z,98964.98
2018-03-11T09:54:42.959Z,98973.48
2018-03-11T09:57:10.481Z,98975.19
2018-03-11T09:59:38.018Z,98974.50
2018-03-11T10:02:05.536Z,98973.89
2018-03-11T10:04:33.044Z,98954.75
2018-03-11T10:07:00.533Z,98945.11
2018-03-11T10:09:28.039Z,98942.67
2018-03-11T10:11:55.532Z,98932.25
2018-03-11T10:14:23.037Z,98938.31
2018-03-11T10:16:50.535Z,98926.95
2018-03-11T10:19:18.231Z,98928.52
2018-03-11T10:21:45.754Z,98919.66
2018-03-11T10:24:13.262Z,98925.59
2018-03-11T10:26:40.753Z,98930.89
2018-03-11T10:29:08.244Z,98920.52
2018-03-11T10:31:35.726Z,98924.42
2018-03-11T10:34:03.200Z,98936.05
2018-03-11T10:36:30.692Z,98931.22
2018-03-11T10:38:58.196Z,98935.86
2018-03-11T10:41:25.707Z,98939.25
2018-03-11T10:43:53.230Z,98947.64
2018-03-11T10:46:20.720Z,98945.60
2018-03-11T10:48:48.216Z,98945.08
2018-03-11T10:51:15.716Z,98926.58
2018-03-11T10:53:43.263Z,98923.42
2018-03-11T10:56:10.753Z,98915.06
2018-03-11T10:58:38.229Z,98908.47
2018-03-11T11:01:11.276Z,98908.52
2018-03-11T11:03:38.777Z,98898.90
2018-03-11T11:06:06.285Z,98900.84
2018-03-11T11:08:33.789Z,98912.22
2018-03-11T11:11:01.300Z,98898.77
2018-03-11T11:13:28.802Z,98902.08
2018-03-11T11:15:56.286Z,98897.88
2018-03-11T11:18:23.778Z,98900.88
2018-03-11T11:20:51.337Z,98895.89
2018-03-11T11:23:18.878Z,98886.20
2018-03-11T11:25:46.388Z,98884.64
2018-03-11T11:28:13.882Z,98869.11
2018-03-11T11:30:41.403Z,98868.02
2018-03-11T11:33:08.908Z,98866.56
2018-03-11T11:35:36.416Z,98863.74
2018-03-11T11:38:03.994Z,98858.53
2018-03-11T11:40:31.504Z,98860.61
2018-03-11T11:42:59.015Z,98846.25
2018-03-11T11:45:26.517Z,98845.07
2018-03-11T11:47:54.023Z,98844.29
2018-03-11T11:50:21.521Z,98847.52
2018-03-11T11:52:49.020Z,98857.13
2018-03-11T11:55:16.502Z,98864.22
2018-03-11T11:57:44.059Z,98862.70
2018-03-11T12:00:11.553Z,98854.44
2018-03-11T12:02:39.069Z,98848.28
2018-03-11T12:05:06.572Z,98865.37
2018-03-11T12:07:34.106Z,98864.63
2018-03-11T12:10:01.637Z,98854.97
2018-03-11T12:12:29.183Z,98851.00
2018-03-11T12:14:56.670Z,98848.65
2018-03-11T12:17:24.232Z,98839.09
2018-03-11T12:19:51.758Z,98832.55
2018-03-11T12:22:19.232Z,98830.58
2018-03-11T12:24:46.848Z,98821.95
2018-03-11T12:27:14.363Z,98817.23
2018-03-11T12:29:41.840Z,98816.79
2018-03-11T12:32:09.322Z,98820.80
2018-03-11T12:34:36.798Z,98811.13
2018-03-11T12:37:05.549Z,98806.23
2018-03-11T12:39:33.179Z,98794.89
2018-03-11T12:42:00.662Z,98781.59
2018-03-11T12:44:28.185Z,98770.87
2018-03-11T12:46:55.674Z,98759.35
2018-03-11T12:49:23.629Z,98766.91
2018-03-11T12:51:51.128Z,98771.09
2018-03-11T12:54:18.642Z,98769.65
2018-03-11T12:56:46.095Z,98772.80
2018-03-11T12:59:13.567Z,98769.11
2018-03-11T13:01:41.023Z,98764.07
2018-03-11T13:04:08.470Z,98760.09
2018-03-11T13:06:36.001Z,98762.26
2018-03-11T13:09:03.562Z,98760.50
2018-03-11T13:11:31.029Z,98763.87
2018-03-11T13:13:58.494Z,98776.70
2018-03-11T13:16:25.975Z,98767.02
2018-03-11T13:18:53.467Z,98767.80
2018-03-11T13:21:20.950Z,98766.36
2018-03-11T13:23:48.454Z,98754.11
2018-03-11T13:26:15.914Z,98764.75
2018-03-11T13:28:50.182Z,98760.66
2018-03-11T13:31:17.638Z,98757.73
2018-03-11T13:33:56.962Z,98753.04
2018-03-11T13:36:24.409Z,98747.56
2018-03-11T13:39:03.718Z,98747.66
2018-03-11T13:41:31.197Z,98748.38
2018-03-11T13:43:58.704Z,98758.96
2018-03-11T13:46:37.972Z,98751.03
2018-03-11T13:49:05.442Z,98734.13
2018-03-11T13:51:45.764Z,98731.83
2018-03-11T13:54:13.201Z,98734.75
2018-03-11T14:02:15.176Z,98731.55
2018-03-11T14:04:42.738Z,98735.07
2018-03-11T14:07:10.402Z,98726.85
2018-03-11T14:09:37.894Z,98728.72
2018-03-11T14:12:05.425Z,98722.27
2018-03-11T14:14:32.906Z,98707.25
2018-03-11T14:17:00.460Z,98701.62
2018-03-11T14:19:27.989Z,98692.27
2018-03-11T14:21:55.490Z,98696.20
2018-03-11T14:24:23.004Z,98680.09
2018-03-11T14:26:51.259Z,98678.93
2018-03-11T14:29:18.780Z,98686.70
2018-03-11T14:31:46.263Z,98670.98
2018-03-11T14:34:13.748Z,98661.79
2018-03-11T14:36:41.240Z,98678.94
2018-03-11T14:39:08.719Z,98680.82
2018-03-11T14:41:36.235Z,98686.14
2018-03-11T14:44:03.726Z,98683.37
2018-03-11T14:46:31.234Z,98675.22
2018-03-11T14:48:58.732Z,98670.66
2018-03-11T14:51:26.721Z,98660.37
2018-03-11T14:53:54.194Z,98659.52
2018-03-11T14:56:21.846Z,98654.94
2018-03-11T14:58:49.336Z,98656.28
2018-03-11T15:01:16.829Z,98657.98
2018-03-11T15:03:44.324Z,98652.01
2018-03-11T15:06:11.806Z,98647.13
2018-03-11T15:08:39.424Z,98642.51
2018-03-11T15:11:06.911Z,98641.88
2018-03-11T15:13:34.431Z,98640.64
2018-03-11T15:16:01.925Z,98630.23
2018-03-11T15:18:29.395Z,98626.30
2018-03-11T15:20:56.881Z,98626.30
2018-03-11T15:23:24.516Z,98629.06
2018-03-11T15:25:52.002Z,98614.70
2018-03-11T15:28:19.466Z,98607.30
2018-03-11T15:30:47.046Z,98611.94
2018-03-11T15:33:14.518Z,98601.55
2018-03-11T15:35:42.016Z,98600.73
2018-03-11T15:38:09.536Z,98599.19
2018-03-11T15:40:37.024Z,98598.87
2018-03-11T15:43:04.545Z,98594.50
2018-03-11T15:45:32.053Z,98590.47
2018-03-11T15:47:59.552Z,98586.04
2018-03-11T15:50:27.023Z,98581.47
2018-03-11T15:52:54.553Z,98582.33
2018-03-11T15:55:22.778Z,98576.59
2018-03-11T15:57:50.346Z,98574.98
2018-03-11T16:00:17.869Z,98571.44
2018-03-11T16:02:45.358Z,98579.20
2018-03-11T16:05:12.928Z,98574.38
2018-03-11T16:07:40.575Z,98567.32
2018-03-11T16:10:08.076Z,98570.68
2018-03-11T16:12:36.522Z,98576.25
2018-03-11T16:15:04.810Z,98576.63
2018-03-11T16:17:32.355Z,98574.17
2018-03-11T16:19:59.947Z,98573.53
2018-03-11T16:22:27.434Z,98573.38
2018-03-11T16:24:54.980Z,98573.03
2018-03-11T16:27:22.501Z,98573.03
2018-03-11T16:29:49.991Z,98573.53
2018-03-11T16:32:17.493Z,98582.28
2018-03-11T16:34:45.053Z,98576.25
2018-03-11T16:37:12.607Z,98573.16
2018-03-11T16:39:40.172Z,98574.45
2018-03-11T16:42:07.657Z,98575.53
2018-03-11T16:44:35.158Z,98585.18
2018-03-11T16:47:02.695Z,98575.91
2018-03-11T16:49:30.174Z,98572.23
2018-03-11T16:51:57.751Z,98573.89
2018-03-11T16:54:25.269Z,98580.09
2018-03-11T16:56:52.854Z,98587.60
2018-03-11T16:59:20.597Z,98580.59
2018-03-11T17:01:48.068Z,98602.03
2018-03-11T17:04:15.581Z,98595.65
2018-03-11T17:06:43.066Z,98578.83
2018-03-11T17:09:10.546Z,98596.36
2018-03-11T17:11:38.107Z,98594.26
2018-03-11T17:14:05.709Z,98593.94
2018-03-11T17:16:33.267Z,98599.66
2018-03-11T17:19:00.797Z,98595.10
2018-03-11T17:21:28.346Z,98598.13
2018-03-11T17:23:55.843Z,98604.66
2018-03-11T17:26:23.411Z,98609.45
2018-03-11T17:28:51.036Z,98606.08
2018-03-11T17:31:18.614Z,98607.91
2018-03-11T17:33:46.108Z,98609.10
2018-03-11T17:36:13.719Z,98611.83
2018-03-11T17:38:41.244Z,98610.76
2018-03-11T17:41:12.398Z,98611.52
2018-03-11T17:43:39.940Z,98610.33
2018-03-11T17:46:07.477Z,98604.83
2018-03-11T17:48:39.292Z,98612.38
2018-03-11T17:51:06.785Z,98606.97
2018-03-11T17:53:34.268Z,98605.42
2018-03-11T17:56:01.807Z,98601.09
2018-03-11T17:58:29.382Z,98601.38
2018-03-11T18:00:56.957Z,98602.73
2018-03-11T18:03:24.478Z,98603.84
2018-03-11T18:05:53.781Z,98599.67
2018-03-11T18:08:21.363Z,98603.48
2018-03-11T18:10:48.874Z,98604.11
2018-03-11T18:13:16.388Z,98604.56
2018-03-11T18:15:43.908Z,98606.55
2018-03-11T18:18:11.472Z,98602.52
2018-03-11T18:20:38.990Z,98604.38
2018-03-11T18:23:06.482Z,98601.08
2018-03-11T18:25:34.008Z,98599.89
2018-03-11T18:28:01.566Z,98606.23
2018-03-11T18:30:29.060Z,98597.16
2018-03-11T18:32:56.591Z,98592.41
2018-03-11T18:35:24.086Z,98596.17
2018-03-11T18:37:52.453Z,98589.04
2018-03-11T18:40:23.303Z,98588.16
2018-03-11T18:42:50.850Z,98590.09
2018-03-11T18:45:18.445Z,98595.09
2018-03-11T18:47:45.957Z,98587.96
2018-03-11T18:50:13.493Z,98593.63
2018-03-11T18:52:41.007Z,98589.39
2018-03-11T18:55:08.635Z,98586.29
2018-03-11T18:57:36.188Z,98585.88
2018-03-11T19:00:03.762Z,98579.27
2018-03-11T19:02:31.282Z,98578.22
2018-03-11T19:05:00.464Z,98580.67
2018-03-11T19:07:27.976Z,98580.36
2018-03-11T19:09:55.756Z,98578.55
2018-03-11T19:12:23.250Z,98579.33
2018-03-11T19:14:50.748Z,98576.98
2018-03-11T19:17:18.242Z,98577.19
2018-03-11T19:19:45.765Z,98572.33
2018-03-11T19:22:13.271Z,98568.29
2018-03-11T19:24:40.802Z,98577.61
2018-03-11T19:27:08.480Z,98575.47
2018-03-11T19:29:35.971Z,98577.40
2018-03-11T19:32:03.448Z,98579.09
2018-03-11T19:34:30.977Z,98576.66
2018-03-11T19:36:59.038Z,98576.42
2018-03-11T19:39:26.557Z,98574.58
2018-03-11T19:41:54.052Z,98579.19
2018-03-11T19:44:21.562Z,98573.50
2018-03-11T19:46:49.110Z,98579.70
2018-03-11T19:49:16.622Z,98578.59
2018-03-11T19:51:44.138Z,98579.01
2018-03-11T19:54:12.304Z,98579.36
2018-03-11T19:56:39.802Z,98573.40
2018-03-11T19:59:07.335Z,98574.31
2018-03-11T20:01:36.358Z,98578.63
2018-03-11T20:04:03.863Z,98572.89
2018-03-11T20:06:31.364Z,98573.17
2018-03-11T20:08:58.972Z,98579.33
2018-03-11T20:11:26.471Z,98573.19
2018-03-11T20:13:53.963Z,98581.63
2018-03-11T20:16:21.470Z,98578.27
2018-03-11T20:18:48.954Z,98579.83
2018-03-11T20:21:16.476Z,98575.98
2018-03-11T20:23:43.968Z,98572.29
2018-03-11T20:26:11.449Z,98574.75
2018-03-11T20:28:39.111Z,98573.58
2018-03-11T20:31:06.610Z,98585.34
2018-03-11T20:33:34.136Z,98582.80
2018-03-11T20:36:01.668Z,98587.78
2018-03-11T20:38:29.172Z,98586.44
2018-03-11T20:40:56.720Z,98585.23
2018-03-11T20:43:24.217Z,98580.84
2018-03-11T20:45:51.767Z,98573.89
2018-03-11T20:48:19.329Z,98574.22
2018-03-11T20:50:46.880Z,98568.61
2018-03-11T20:53:14.428Z,98572.59
2018-03-11T20:55:41.923Z,98570.62
2018-03-11T20:58:09.509Z,98568.85
2018-03-11T21:00:37.035Z,98566.92
2018-03-11T21:03:04.529Z,98565.02
2018-03-11T21:05:33.014Z,98563.53
2018-03-11T21:08:00.512Z,98566.02
2018-03-11T21:10:28.012Z,98560.97
2018-03-11T21:12:56.539Z,98556.84
2018-03-11T21:15:24.016Z,98562.44
2018-03-11T21:17:51.516Z,98558.73
2018-03-11T21:20:19.022Z,98567.41
2018-03-11T21:22:46.591Z,98562.84
2018-03-11T21:25:14.098Z,98558.97
2018-03-11T21:27:41.581Z,98560.19
2018-03-11T21:30:09.116Z,98559.73
2018-03-11T21:32:36.616Z,98559.10
2018-03-11T21:35:04.128Z,98558.97
2018-03-11T21:37:31.646Z,98558.22
2018-03-11T21:39:59.185Z,98553.96
2018-03-11T21:42:26.687Z,98553.06
2018-03-11T21:44:54.166Z,98553.94
2018-03-11T21:47:21.634Z,98550.64
2018-03-11T21:49:49.128Z,98547.09
2018-03-11T21:52:16.615Z,98542.83
2018-03-11T21:54:44.139Z,98542.62
2018-03-11T21:57:11.633Z,98538.36
2018-03-11T21:59:39.139Z,98533.22
2018-03-11T22:02:06.661Z,98534.81
2018-03-11T22:04:34.195Z,98528.91
2018-03-11T22:07:01.734Z,98520.45
2018-03-11T22:09:29.236Z,98526.27
2018-03-11T22:11:56.763Z,98514.95
2018-03-11T22:14:24.251Z,98513.61
2018-03-11T22:16:51.776Z,98514.69
2018-03-11T22:19:19.301Z,98510.17
2018-03-11T22:21:46.803Z,98503.84
2018-03-11T22:24:14.297Z,98499.73
2018-03-11T22:26:41.818Z,98499.14
2018-03-11T22:29:09.362Z,98492.81
2018-03-11T22:31:36.907Z,98499.21
2018-03-11T22:34:04.542Z,98495.34
2018-03-11T22:36:32.073Z,98494.97
2018-03-11T22:38:59.606Z,98494.48
2018-03-11T22:41:27.126Z,98486.73
2018-03-11T22:43:54.630Z,98492.77
2018-03-11T22:46:22.268Z,98491.63
2018-03-11T22:48:49.852Z,98489.38
2018-03-11T22:51:17.352Z,98489.27
2018-03-11T22:53:45.063Z,98486.89
2018-03-11T22:56:12.631Z,98492.91
2018-03-11T22:58:40.304Z,98502.62
2018-03-11T23:01:07.841Z,98498.42
2018-03-11T23:03:35.330Z,98490.79
2018-03-11T23:06:02.820Z,98489.05
2018-03-11T23:08:30.328Z,98486.27
2018-03-11T23:10:57.977Z,98492.03
2018-03-11T23:13:25.474Z,98489.42
2018-03-11T23:15:53.031Z,98492.44
2018-03-11T23:18:20.527Z,98484.23
2018-03-11T23:20:48.020Z,98485.98
2018-03-11T23:23:15.516Z,98488.94
2018-03-11T23:25:43.041Z,98488.89
2018-03-11T23:28:10.522Z,98489.47
2018-03-11T23:30:38.021Z,98490.94
2018-03-11T23:33:05.540Z,98488.33
2018-03-11T23:35:33.049Z,98479.90
2018-03-11T23:38:00.571Z,98479.36
2018-03-11T23:40:28.100Z,98486.98
2018-03-11T23:42:55.606Z,98494.50
2018-03-11T23:45:23.136Z,98492.86
2018-03-11T23:47:50.703Z,98495.08
2018-03-11T23:50:18.224Z,98498.33
2018-03-11T23:52:45.716Z,98498.84
2018-03-11T23:55:13.227Z,98503.56
2018-03-11T23:57:40.722Z,98505.66
